Arthur Brusco — WDC3449 — position and weather

sailwx.info

Track history (hours):
 
Tides and Currents Weather Stations Pressure Air Temp Water Temp Dewpoint Dewpoint Depression Visibility Wind Speed Wind Dir Waves Ship Positions

Arthur Brusco

More information available from US FCC via Universal Licensing System and Coast Guard Vessel Documentation Center.

Last reported at 2014-Aug-30 03:31 UTC. Time now 2014-Aug-30 22:39 UTC.
Position N 38°02' W 121°47'.

Length 35 m; draft 4.2 m.

Type: Towing. MMSI: 367008020.

Date/timePositionNaut miles runAvg speedWind from/ knotsBaromVisibWave heightAir tempDewpointWater temp
2014-Aug-30 03:31N 38°02' W 121°47'1110.4
2014-Aug-30 02:29N 38°04' W 122°00'9 9.7
2014-Aug-30 01:33N 38°03' W 122°12'1010.3
2014-Aug-30 00:33N 38°00' W 122°24'10 9.5
2014-Aug-29 23:33N 37°51' W 122°23'4 4.3
2014-Aug-29 22:33N 37°48' W 122°18'0 0.0
2014-Aug-29 21:33N 37°48' W 122°18'0 0.0
2014-Aug-29 20:33N 37°48' W 122°18'0 0.0
2014-Aug-29 19:33N 37°48' W 122°18'0 0.0
2014-Aug-29 18:33N 37°48' W 122°18'0 0.0
2014-Aug-29 17:33N 37°48' W 122°18'0 0.0
2014-Aug-29 16:33N 37°48' W 122°18'0 0.0
2014-Aug-29 15:33N 37°48' W 122°18'1 0.8
2014-Aug-29 14:33N 37°48' W 122°19'6 6.3
2014-Aug-29 13:33N 37°52' W 122°25'7 7.1
2014-Aug-29 12:32N 37°60' W 122°25'10 8.3
2014-Aug-29 11:23N 38°04' W 122°14'26 8.1
2014-Aug-29 08:10N 38°04' W 121°41'6 6.5
2014-Aug-29 07:18N 38°04' W 121°34'10 2.2
2014-Aug-29 02:33N 38°02' W 121°46'8 8.3
2014-Aug-29 01:33N 38°03' W 121°57'1110.2
2014-Aug-29 00:29N 38°03' W 122°10'910.0
2014-Aug-28 23:33N 38°02' W 122°22'9 9.3
2014-Aug-28 22:33N 37°52' W 122°24'6 5.8
2014-Aug-28 21:33N 37°48' W 122°20'0 0.0
2014-Aug-28 20:33N 37°48' W 122°20'0 0.0
2014-Aug-28 19:33N 37°48' W 122°20'0 0.0
2014-Aug-28 18:33N 37°48' W 122°20'0 0.0
2014-Aug-28 17:33N 37°48' W 122°20'0 0.0
2014-Aug-28 16:33N 37°48' W 122°20'0 0.0
2014-Aug-28 15:33N 37°48' W 122°20'0 0.0
2014-Aug-28 14:33N 37°48' W 122°20'0 0.0
2014-Aug-28 13:33N 37°48' W 122°20'0 0.0
2014-Aug-28 12:33N 37°48' W 122°20'0 0.0
2014-Aug-28 11:33N 37°48' W 122°20'0 0.0
2014-Aug-28 10:33N 37°48' W 122°20'0 0.0
2014-Aug-28 09:33N 37°48' W 122°20'0 0.0
2014-Aug-28 08:33N 37°48' W 122°20'0 0.0
2014-Aug-28 07:33N 37°48' W 122°20'0 0.0
2014-Aug-28 06:33N 37°48' W 122°20'0 0.0
2014-Aug-28 05:33N 37°48' W 122°20'1 0.6
2014-Aug-28 04:33N 37°48' W 122°20'7 6.9
2014-Aug-28 03:33N 37°53' W 122°26'1010.2
2014-Aug-28 02:33N 38°02' W 122°20'  
2014-Aug-24 16:25N 37°57' W 121°20'0 0.0
2014-Aug-24 15:31N 37°57' W 121°20'0 0.0
2014-Aug-24 14:31N 37°57' W 121°20'0 0.1
2014-Aug-24 06:28N 37°57' W 121°19'0 0.5
2014-Aug-24 05:30N 37°57' W 121°20'0 0.0
2014-Aug-23 03:24N 37°57' W 121°20'  
Track history (hours):
 
Tides and Currents Weather Stations Pressure Air Temp Water Temp Dewpoint Dewpoint Depression Visibility Wind Speed Wind Dir Waves Ship Positions

Arthur Brusco

More information available from US FCC via Universal Licensing System and Coast Guard Vessel Documentation Center.

Last reported at 2014-Aug-30 03:31 UTC. Time now 2014-Aug-30 22:39 UTC.
Position N 38°02' W 121°47'.

Length 35 m; draft 4.2 m.

Type: Towing. MMSI: 367008020.

Date/timePositionNaut miles runAvg speedWind from/ knotsBaromVisibWave heightAir tempDewpointWater temp
2014-Aug-30 03:31N 38°02' W 121°47'1110.4
2014-Aug-30 02:29N 38°04' W 122°00'9 9.7
2014-Aug-30 01:33N 38°03' W 122°12'1010.3
2014-Aug-30 00:33N 38°00' W 122°24'10 9.5
2014-Aug-29 23:33N 37°51' W 122°23'4 4.3
2014-Aug-29 22:33N 37°48' W 122°18'0 0.0
2014-Aug-29 21:33N 37°48' W 122°18'0 0.0
2014-Aug-29 20:33N 37°48' W 122°18'0 0.0
2014-Aug-29 19:33N 37°48' W 122°18'0 0.0
2014-Aug-29 18:33N 37°48' W 122°18'0 0.0
2014-Aug-29 17:33N 37°48' W 122°18'0 0.0
2014-Aug-29 16:33N 37°48' W 122°18'0 0.0
2014-Aug-29 15:33N 37°48' W 122°18'1 0.8
2014-Aug-29 14:33N 37°48' W 122°19'6 6.3
2014-Aug-29 13:33N 37°52' W 122°25'7 7.1
2014-Aug-29 12:32N 37°60' W 122°25'10 8.3
2014-Aug-29 11:23N 38°04' W 122°14'26 8.1
2014-Aug-29 08:10N 38°04' W 121°41'6 6.5
2014-Aug-29 07:18N 38°04' W 121°34'10 2.2
2014-Aug-29 02:33N 38°02' W 121°46'8 8.3
2014-Aug-29 01:33N 38°03' W 121°57'1110.2
2014-Aug-29 00:29N 38°03' W 122°10'910.0
2014-Aug-28 23:33N 38°02' W 122°22'9 9.3
2014-Aug-28 22:33N 37°52' W 122°24'6 5.8
2014-Aug-28 21:33N 37°48' W 122°20'0 0.0
2014-Aug-28 20:33N 37°48' W 122°20'0 0.0
2014-Aug-28 19:33N 37°48' W 122°20'0 0.0
2014-Aug-28 18:33N 37°48' W 122°20'0 0.0
2014-Aug-28 17:33N 37°48' W 122°20'0 0.0
2014-Aug-28 16:33N 37°48' W 122°20'0 0.0
2014-Aug-28 15:33N 37°48' W 122°20'0 0.0
2014-Aug-28 14:33N 37°48' W 122°20'0 0.0
2014-Aug-28 13:33N 37°48' W 122°20'0 0.0
2014-Aug-28 12:33N 37°48' W 122°20'0 0.0
2014-Aug-28 11:33N 37°48' W 122°20'0 0.0
2014-Aug-28 10:33N 37°48' W 122°20'0 0.0
2014-Aug-28 09:33N 37°48' W 122°20'0 0.0
2014-Aug-28 08:33N 37°48' W 122°20'0 0.0
2014-Aug-28 07:33N 37°48' W 122°20'0 0.0
2014-Aug-28 06:33N 37°48' W 122°20'0 0.0
2014-Aug-28 05:33N 37°48' W 122°20'1 0.6
2014-Aug-28 04:33N 37°48' W 122°20'7 6.9
2014-Aug-28 03:33N 37°53' W 122°26'1010.2
2014-Aug-28 02:33N 38°02' W 122°20'  
2014-Aug-24 16:25N 37°57' W 121°20'0 0.0
2014-Aug-24 15:31N 37°57' W 121°20'0 0.0
2014-Aug-24 14:31N 37°57' W 121°20'0 0.1
2014-Aug-24 06:28N 37°57' W 121°19'0 0.5
2014-Aug-24 05:30N 37°57' W 121°20'0 0.0
2014-Aug-23 03:24N 37°57' W 121°20'  

Dump ship's entire track history